createdAt,value
2023-03-02T00:02:15.304Z,261.58
2023-03-02T00:04:57.696Z,239.27
2023-03-02T00:07:34.431Z,229.88
2023-03-02T00:10:05.777Z,280.60
2023-03-02T00:12:46.471Z,261.10
2023-03-02T00:15:13.141Z,268.95
2023-03-02T00:17:42.106Z,300.52
2023-03-02T00:20:10.409Z,301.75
2023-03-02T00:22:46.026Z,295.70
2023-03-02T00:25:19.638Z,305.30
2023-03-02T00:27:46.393Z,291.83
2023-03-02T00:30:15.561Z,234.25
2023-03-02T00:32:45.864Z,192.80
2023-03-02T00:35:12.961Z,227.63
2023-03-02T00:37:46.572Z,187.77
2023-03-02T00:40:16.240Z,321.35
2023-03-02T00:42:45.610Z,250.52
2023-03-02T00:45:12.400Z,243.52
2023-03-02T00:47:48.284Z,340.00
2023-03-02T00:50:15.098Z,290.35
2023-03-02T00:52:52.084Z,255.88
2023-03-02T00:55:19.441Z,245.05
2023-03-02T00:57:54.822Z,264.85
2023-03-02T01:00:28.475Z,304.40
2023-03-02T01:02:56.170Z,220.73
2023-03-02T01:05:23.051Z,253.45
2023-03-02T01:07:49.905Z,300.98
2023-03-02T01:10:17.046Z,241.82
2023-03-02T01:12:46.604Z,184.05
2023-03-02T01:15:13.841Z,150.65
2023-03-02T01:17:46.754Z,178.02
2023-03-02T01:20:14.604Z,173.68
2023-03-02T01:22:45.349Z,155.82
2023-03-02T01:25:14.347Z,127.57
2023-03-02T01:27:44.145Z,187.95
2023-03-02T01:30:12.692Z,145.73
2023-03-02T01:32:57.733Z,159.80
2023-03-02T01:35:24.470Z,199.60
2023-03-02T01:37:51.126Z,159.25
2023-03-02T01:40:18.176Z,218.40
2023-03-02T01:43:02.337Z,190.85
2023-03-02T01:45:48.721Z,236.52
2023-03-02T01:48:25.906Z,164.18
2023-03-02T01:50:54.297Z,181.55
2023-03-02T01:53:36.668Z,204.55
2023-03-02T01:56:05.968Z,211.07
2023-03-02T01:58:37.694Z,165.18
2023-03-02T02:01:06.527Z,145.65
2023-03-02T02:03:34.212Z,131.05
2023-03-02T02:07:05.740Z,148.57
2023-03-02T02:09:52.382Z,108.13
2023-03-02T02:12:26.767Z,115.38
2023-03-02T02:14:55.047Z,142.73
2023-03-02T02:17:22.306Z,163.27
2023-03-02T02:20:15.543Z,161.32
2023-03-02T02:23:13.186Z,125.85
2023-03-02T02:25:55.275Z,112.25
2023-03-02T02:29:12.185Z,155.57
2023-03-02T02:32:06.718Z,163.80
2023-03-02T02:35:01.479Z,150.90
2023-03-02T02:37:41.890Z,144.13
2023-03-02T02:40:38.454Z,133.02
2023-03-02T02:43:13.895Z,80.70
2023-03-02T02:45:44.761Z,81.43
2023-03-02T02:48:23.204Z,130.00
2023-03-02T02:51:00.040Z,115.57
2023-03-02T02:53:34.209Z,132.60
2023-03-02T02:56:07.690Z,114.80
2023-03-02T02:58:47.559Z,96.97
2023-03-02T03:01:19.132Z,129.10
2023-03-02T03:04:07.228Z,129.13
2023-03-02T03:06:45.171Z,107.03
2023-03-02T03:09:12.236Z,88.28
2023-03-02T03:12:08.507Z,81.68
2023-03-02T03:14:44.564Z,108.18
2023-03-02T03:17:14.478Z,142.95
2023-03-02T03:19:48.336Z,112.95
2023-03-02T03:22:18.207Z,127.65
2023-03-02T03:24:49.270Z,108.68
2023-03-02T03:27:17.053Z,89.35
2023-03-02T03:29:50.154Z,82.03
2023-03-02T03:32:21.019Z,106.50
2023-03-02T03:34:50.551Z,77.85
2023-03-02T03:37:21.053Z,90.72
2023-03-02T03:39:52.902Z,106.45
2023-03-02T03:42:19.962Z,76.70
2023-03-02T03:44:47.604Z,100.57
2023-03-02T03:47:14.383Z,122.82
2023-03-02T03:49:44.220Z,72.78
2023-03-02T03:52:14.686Z,69.13
2023-03-02T03:54:43.887Z,79.22
2023-03-02T03:57:12.048Z,67.93
2023-03-02T03:59:38.765Z,81.85
2023-03-02T04:02:05.503Z,97.93
2023-03-02T04:04:35.327Z,96.32
2023-03-02T04:07:02.510Z,95.47
2023-03-02T04:09:32.630Z,69.97
2023-03-02T04:11:59.406Z,124.93
2023-03-02T04:14:26.340Z,78.03
2023-03-02T04:16:56.842Z,68.90
2023-03-02T04:19:25.231Z,80.97
2023-03-02T04:21:58.350Z,69.90
2023-03-02T04:24:25.304Z,93.15
2023-03-02T04:26:54.666Z,73.53
2023-03-02T04:29:21.523Z,75.45
2023-03-02T04:31:50.970Z,65.25
2023-03-02T04:34:17.946Z,73.38
2023-03-02T04:36:45.221Z,61.08
2023-03-02T04:39:17.247Z,60.00
2023-03-02T04:41:47.339Z,87.10
2023-03-02T04:44:16.830Z,84.18
2023-03-02T04:46:45.225Z,74.32
2023-03-02T04:49:14.652Z,56.08
2023-03-02T04:51:50.797Z,52.75
2023-03-02T04:54:25.370Z,55.70
2023-03-02T04:56:54.353Z,90.93
2023-03-02T04:59:27.187Z,59.25
2023-03-02T05:01:58.646Z,52.90
2023-03-02T05:04:27.904Z,81.80
2023-03-02T05:06:55.240Z,114.55
2023-03-02T05:09:28.781Z,94.68
2023-03-02T05:11:57.553Z,71.68
2023-03-02T05:14:26.522Z,69.13
2023-03-02T05:16:53.747Z,67.47
2023-03-02T05:19:26.886Z,56.85
2023-03-02T05:21:53.960Z,61.75
2023-03-02T05:24:20.623Z,71.40
2023-03-02T05:26:47.296Z,71.18
2023-03-02T05:29:14.158Z,56.35
2023-03-02T05:31:47.109Z,72.35
2023-03-02T05:34:17.305Z,91.03
2023-03-02T05:36:45.868Z,69.95
2023-03-02T05:39:16.069Z,75.03
2023-03-02T05:41:45.768Z,55.45
2023-03-02T05:44:12.594Z,49.80
2023-03-02T05:46:43.260Z,72.68
2023-03-02T05:49:10.629Z,62.47
2023-03-02T05:51:37.261Z,80.68
2023-03-02T05:54:04.207Z,50.13
2023-03-02T05:56:31.386Z,79.45
2023-03-02T05:58:58.821Z,73.68
2023-03-02T06:01:28.593Z,117.72
2023-03-02T06:03:55.948Z,103.25
2023-03-02T06:06:22.711Z,97.38
2023-03-02T06:08:49.428Z,85.68
2023-03-02T06:11:20.393Z,67.05
2023-03-02T06:13:47.160Z,73.18
2023-03-02T06:16:13.890Z,52.90
2023-03-02T06:18:46.036Z,51.08
2023-03-02T06:21:15.675Z,49.47
2023-03-02T06:23:42.584Z,52.90
2023-03-02T07:26:05.337Z,59.95
2023-03-02T07:28:33.499Z,48.20
2023-03-02T07:31:00.196Z,57.72
2023-03-02T07:33:26.902Z,48.05
2023-03-02T07:35:55.999Z,40.30
2023-03-02T07:38:22.922Z,48.30
2023-03-02T07:40:50.184Z,49.25
2023-03-02T07:43:16.819Z,53.15
2023-03-02T07:45:43.892Z,50.80
2023-03-02T07:48:10.670Z,44.72
2023-03-02T07:50:37.435Z,55.97
2023-03-02T07:53:04.248Z,44.42
2023-03-02T07:55:30.902Z,37.10
2023-03-02T07:57:57.646Z,36.55
2023-03-02T08:00:24.852Z,36.47
2023-03-02T08:02:51.550Z,28.48
2023-03-02T08:05:18.548Z,32.10
2023-03-02T08:07:47.104Z,31.70
2023-03-02T08:10:13.890Z,32.03
2023-03-02T08:12:45.808Z,26.60
2023-03-02T08:15:12.821Z,24.10
2023-03-02T08:17:41.883Z,28.20
2023-03-02T08:20:14.666Z,31.90
2023-03-02T08:22:44.598Z,28.63
2023-03-02T08:25:13.819Z,29.80
2023-03-02T08:27:44.416Z,27.17
2023-03-02T08:30:14.761Z,26.13
2023-03-02T08:32:44.563Z,26.65
2023-03-02T08:35:17.422Z,29.25
2023-03-02T08:37:44.241Z,26.10
2023-03-02T08:40:14.627Z,20.60
2023-03-02T08:42:44.446Z,24.17
2023-03-02T08:45:13.600Z,22.25
2023-03-02T08:47:43.167Z,22.50
2023-03-02T08:50:11.570Z,23.92
2023-03-02T08:52:38.357Z,21.48
2023-03-02T08:55:06.555Z,23.15
2023-03-02T08:57:34.746Z,24.92
2023-03-02T09:00:01.580Z,28.98
2023-03-02T09:02:28.276Z,27.85
2023-03-02T09:05:00.848Z,24.30
2023-03-02T09:07:27.596Z,25.27
2023-03-02T09:09:55.730Z,25.48
2023-03-02T09:12:22.573Z,24.02
2023-03-02T09:14:49.249Z,25.50
2023-03-02T09:17:17.282Z,30.55
2023-03-02T09:19:44.743Z,26.15
2023-03-02T09:22:11.895Z,23.30
2023-03-02T09:24:38.626Z,27.60
2023-03-02T09:27:05.305Z,23.50
2023-03-02T09:29:32.055Z,30.65
2023-03-02T09:32:01.765Z,27.70
2023-03-02T09:34:29.393Z,24.33
2023-03-02T09:36:56.522Z,22.90
2023-03-02T09:39:23.297Z,21.52
2023-03-02T09:42:08.285Z,17.98
2023-03-02T09:45:03.150Z,18.63
2023-03-02T09:47:45.656Z,17.20
2023-03-02T09:50:50.291Z,16.90
2023-03-02T09:53:45.192Z,22.85
2023-03-02T09:56:19.988Z,22.20
2023-03-02T09:59:08.042Z,20.38
2023-03-02T10:01:53.409Z,19.13
2023-03-02T10:04:53.329Z,16.75
2023-03-02T10:07:32.546Z,17.88
2023-03-02T10:10:39.023Z,17.73
2023-03-02T10:14:02.898Z,15.25
2023-03-02T10:16:49.746Z,18.38
2023-03-02T10:19:41.803Z,16.25
2023-03-02T10:22:41.600Z,18.73
2023-03-02T10:25:52.924Z,18.77
2023-03-02T10:28:26.346Z,23.10
2023-03-02T10:31:30.626Z,19.70
2023-03-02T10:34:01.446Z,18.92
2023-03-02T10:36:38.363Z,21.05
2023-03-02T10:39:15.345Z,24.55
2023-03-02T10:42:03.959Z,21.42
2023-03-02T10:44:42.189Z,22.80
2023-03-02T10:47:38.018Z,19.40
2023-03-02T10:50:21.132Z,18.73
2023-03-02T10:52:59.964Z,21.55
2023-03-02T10:55:28.941Z,18.80
2023-03-02T10:58:25.745Z,19.38
2023-03-02T11:01:16.948Z,25.75
2023-03-02T11:04:03.912Z,18.10
2023-03-02T11:06:31.035Z,17.83
2023-03-02T11:09:02.097Z,20.65
2023-03-02T11:11:30.209Z,20.75
2023-03-02T11:14:17.291Z,21.85
2023-03-02T11:16:44.104Z,23.83
2023-03-02T11:19:33.174Z,17.88
2023-03-02T11:22:25.009Z,18.83
2023-03-02T11:24:58.362Z,21.50
2023-03-02T11:27:35.353Z,19.07
2023-03-02T11:30:18.985Z,24.40
2023-03-02T11:33:27.695Z,20.02
2023-03-02T11:36:20.700Z,20.55
2023-03-02T11:38:55.058Z,19.25
2023-03-02T11:44:19.489Z,21.83
2023-03-02T11:46:57.899Z,21.60
2023-03-02T11:49:57.207Z,23.40
2023-03-02T11:52:32.167Z,19.35
2023-03-02T11:55:19.992Z,18.30
2023-03-02T11:58:04.610Z,20.33
2023-03-02T12:03:14.749Z,18.85
2023-03-02T12:06:05.208Z,20.98
2023-03-02T12:08:48.006Z,19.38
2023-03-02T12:11:17.876Z,17.80
2023-03-02T12:14:43.868Z,18.20
2023-03-02T12:20:29.917Z,16.88
2023-03-02T12:23:24.100Z,15.88
2023-03-02T12:26:21.115Z,16.65
2023-03-02T12:29:23.862Z,16.80
2023-03-02T12:31:57.090Z,18.95
2023-03-02T12:34:35.106Z,20.98
2023-03-02T12:37:22.800Z,20.85
2023-03-02T12:40:38.360Z,18.45
2023-03-02T12:43:35.927Z,16.20
2023-03-02T12:50:22.117Z,20.13
2023-03-02T12:53:06.371Z,17.25
2023-03-02T12:55:34.615Z,17.98
2023-03-02T12:58:03.372Z,17.90
2023-03-02T13:00:35.352Z,15.75
2023-03-02T13:03:09.746Z,17.27
2023-03-02T13:05:37.408Z,18.10
2023-03-02T13:08:32.108Z,16.58
2023-03-02T13:11:05.447Z,16.38
2023-03-02T13:13:52.325Z,18.48
2023-03-02T13:16:36.502Z,17.98
2023-03-02T13:22:00.889Z,16.73
2023-03-02T13:24:45.618Z,20.80
2023-03-02T13:27:25.553Z,15.38
2023-03-02T13:29:55.672Z,18.20
2023-03-02T13:32:46.718Z,18.52
2023-03-02T13:35:30.030Z,16.13
2023-03-02T13:38:23.132Z,16.48
2023-03-02T13:40:55.221Z,15.80
2023-03-02T13:43:31.028Z,14.88
2023-03-02T13:46:11.246Z,15.73
2023-03-02T13:48:44.694Z,15.93
2023-03-02T13:51:24.035Z,13.73
2023-03-02T13:53:59.034Z,16.35
2023-03-02T13:56:38.794Z,16.13
2023-03-02T13:59:20.430Z,16.30
2023-03-02T14:01:47.743Z,13.73
2023-03-02T14:04:23.249Z,14.60
2023-03-02T14:06:55.961Z,14.73
2023-03-02T14:09:22.860Z,13.23
2023-03-02T14:11:55.866Z,13.50
2023-03-02T14:14:29.080Z,14.02
2023-03-02T14:16:56.806Z,16.60
2023-03-02T14:19:23.409Z,14.27
2023-03-02T14:21:50.155Z,14.30
2023-03-02T14:24:17.022Z,12.93
2023-03-02T14:26:48.835Z,15.00
2023-03-02T14:29:36.834Z,15.18
2023-03-02T14:32:09.653Z,19.88
2023-03-02T14:34:43.542Z,18.33
2023-03-02T14:37:27.639Z,14.73
2023-03-02T14:39:55.724Z,14.75
2023-03-02T14:42:23.613Z,16.02
2023-03-02T14:44:52.167Z,16.63
2023-03-02T14:47:19.581Z,14.00
2023-03-02T14:49:49.289Z,13.93
2023-03-02T14:52:43.146Z,16.70
2023-03-02T14:55:25.935Z,14.63
2023-03-02T14:58:17.611Z,14.88
2023-03-02T15:00:45.296Z,14.00
2023-03-02T15:03:25.578Z,14.30
2023-03-02T15:06:01.391Z,15.40
2023-03-02T15:08:30.156Z,13.02
2023-03-02T15:11:01.515Z,17.95
2023-03-02T15:13:28.285Z,13.20
2023-03-02T15:15:55.055Z,14.68
2023-03-02T15:18:21.740Z,15.07
2023-03-02T15:20:48.536Z,12.82
2023-03-02T15:23:15.285Z,13.77
2023-03-02T15:26:00.741Z,13.00
2023-03-02T15:28:27.455Z,13.18
2023-03-02T15:31:14.987Z,13.00
2023-03-02T15:33:51.222Z,12.15
2023-03-02T15:36:27.006Z,12.13
2023-03-02T15:38:53.673Z,16.92
2023-03-02T15:41:21.183Z,12.80
2023-03-02T15:43:55.112Z,12.75
2023-03-02T15:46:23.677Z,12.27
2023-03-02T15:48:53.765Z,14.00
2023-03-02T15:51:23.941Z,15.00
2023-03-02T15:53:53.621Z,15.25
2023-03-02T15:56:20.438Z,15.45
2023-03-02T15:58:51.442Z,18.45
2023-03-02T16:01:18.273Z,15.82
2023-03-02T16:03:45.703Z,15.05
2023-03-02T16:06:13.388Z,14.77
2023-03-02T16:08:49.747Z,18.40
2023-03-02T16:11:21.311Z,15.32
2023-03-02T16:13:48.205Z,20.27
2023-03-02T16:16:31.142Z,15.40
2023-03-02T16:19:04.388Z,17.20
2023-03-02T16:21:33.243Z,17.17
2023-03-02T16:24:03.920Z,20.02
2023-03-02T16:26:42.791Z,21.55
2023-03-02T16:29:13.195Z,17.95
2023-03-02T16:31:47.144Z,18.67
2023-03-02T16:34:16.571Z,22.13
2023-03-02T16:36:46.281Z,20.38
2023-03-02T16:39:14.426Z,21.58
2023-03-02T16:41:48.725Z,22.52
2023-03-02T16:46:46.501Z,21.55
2023-03-02T16:49:16.520Z,22.95
2023-03-02T16:51:57.984Z,23.90
2023-03-02T16:54:30.325Z,22.48
2023-03-02T16:56:59.744Z,25.75
2023-03-02T16:59:26.617Z,26.63
2023-03-02T17:01:56.206Z,36.22
2023-03-02T17:04:23.002Z,31.17
2023-03-02T17:07:03.884Z,26.92
2023-03-02T17:09:35.277Z,31.88
2023-03-02T17:12:02.258Z,34.00
2023-03-02T17:14:29.298Z,32.58
2023-03-02T17:17:07.160Z,27.70
2023-03-02T17:19:36.950Z,30.33
2023-03-02T17:22:11.322Z,30.92
2023-03-02T17:24:38.265Z,36.67
2023-03-02T17:27:19.058Z,57.20
2023-03-02T17:29:52.356Z,38.83
2023-03-02T17:32:22.724Z,31.50
2023-03-02T17:34:50.537Z,32.83
2023-03-02T17:37:17.721Z,33.40
2023-03-02T17:39:53.542Z,46.00
2023-03-02T17:42:20.478Z,48.75
2023-03-02T17:44:50.179Z,35.33
2023-03-02T17:47:17.233Z,35.53
2023-03-02T17:49:45.210Z,35.55
2023-03-02T17:52:20.953Z,34.30
2023-03-02T17:54:53.705Z,33.55
2023-03-02T17:57:23.043Z,41.10
2023-03-02T17:59:50.481Z,36.80
2023-03-02T18:02:19.171Z,47.60
2023-03-02T18:04:48.588Z,43.10
2023-03-02T18:07:16.659Z,38.80
2023-03-02T18:09:55.258Z,34.72
2023-03-02T18:12:22.187Z,34.35
2023-03-02T18:14:50.184Z,35.13
2023-03-02T18:17:24.588Z,34.53
2023-03-02T18:19:51.434Z,35.70
2023-03-02T18:22:18.121Z,35.88
2023-03-02T18:24:45.178Z,36.65
2023-03-02T18:27:13.933Z,39.40
2023-03-02T18:29:46.330Z,35.22
2023-03-02T18:32:16.365Z,39.28
2023-03-02T18:34:43.192Z,35.67
2023-03-02T18:37:09.976Z,34.38
2023-03-02T18:39:46.793Z,38.63
2023-03-02T18:42:16.566Z,33.47
2023-03-02T18:44:43.325Z,34.60
2023-03-02T18:47:21.618Z,33.28
2023-03-02T18:49:52.066Z,32.03
2023-03-02T18:52:20.230Z,33.92
